sensor_id;sensor_type;location;lat;lon;timestamp;P1;durP1;ratioP1;P2;durP2;ratioP2
2912;SDS011;1466;48.778;9.166;2022-07-23T00:01:23;16.30;;;9.47;;
2912;SDS011;1466;48.778;9.166;2022-07-23T00:03:48;32.07;;;11.40;;
2912;SDS011;1466;48.778;9.166;2022-07-23T00:06:15;25.23;;;10.53;;
2912;SDS011;1466;48.778;9.166;2022-07-23T00:08:41;19.47;;;10.20;;
2912;SDS011;1466;48.778;9.166;2022-07-23T00:11:06;15.93;;;9.97;;
2912;SDS011;1466;48.778;9.166;2022-07-23T00:13:32;17.53;;;10.00;;
2912;SDS011;1466;48.778;9.166;2022-07-23T00:15:58;26.87;;;11.40;;
2912;SDS011;1466;48.778;9.166;2022-07-23T00:18:24;15.00;;;9.90;;
2912;SDS011;1466;48.778;9.166;2022-07-23T00:20:49;16.87;;;9.87;;
2912;SDS011;1466;48.778;9.166;2022-07-23T00:23:16;21.07;;;10.67;;
2912;SDS011;1466;48.778;9.166;2022-07-23T00:25:42;20.17;;;10.97;;
2912;SDS011;1466;48.778;9.166;2022-07-23T00:28:07;17.67;;;9.60;;
2912;SDS011;1466;48.778;9.166;2022-07-23T00:30:33;25.00;;;10.73;;
2912;SDS011;1466;48.778;9.166;2022-07-23T00:33:00;18.10;;;9.70;;
2912;SDS011;1466;48.778;9.166;2022-07-23T00:35:29;30.87;;;11.87;;
2912;SDS011;1466;48.778;9.166;2022-07-23T00:37:56;9.60;;;7.70;;
2912;SDS011;1466;48.778;9.166;2022-07-23T00:40:22;12.97;;;8.43;;
2912;SDS011;1466;48.778;9.166;2022-07-23T00:42:48;14.77;;;8.50;;
2912;SDS011;1466;48.778;9.166;2022-07-23T00:45:14;12.40;;;8.90;;
2912;SDS011;1466;48.778;9.166;2022-07-23T00:47:40;12.80;;;8.87;;
2912;SDS011;1466;48.778;9.166;2022-07-23T00:50:06;16.57;;;9.40;;
2912;SDS011;1466;48.778;9.166;2022-07-23T00:52:33;13.87;;;8.30;;
2912;SDS011;1466;48.778;9.166;2022-07-23T00:55:00;8.07;;;7.37;;
2912;SDS011;1466;48.778;9.166;2022-07-23T00:57:27;11.70;;;7.90;;
2912;SDS011;1466;48.778;9.166;2022-07-23T00:59:52;9.73;;;8.00;;
2912;SDS011;1466;48.778;9.166;2022-07-23T01:02:18;15.20;;;8.60;;
2912;SDS011;1466;48.778;9.166;2022-07-23T01:04:43;19.50;;;10.13;;
2912;SDS011;1466;48.778;9.166;2022-07-23T01:07:09;8.93;;;7.70;;
2912;SDS011;1466;48.778;9.166;2022-07-23T01:09:35;14.30;;;9.13;;
2912;SDS011;1466;48.778;9.166;2022-07-23T01:12:02;10.87;;;7.80;;
2912;SDS011;1466;48.778;9.166;2022-07-23T01:14:28;10.20;;;8.33;;
2912;SDS011;1466;48.778;9.166;2022-07-23T01:16:54;21.33;;;10.00;;
2912;SDS011;1466;48.778;9.166;2022-07-23T01:19:19;11.40;;;8.00;;
2912;SDS011;1466;48.778;9.166;2022-07-23T01:21:49;12.37;;;8.00;;
2912;SDS011;1466;48.778;9.166;2022-07-23T01:24:16;8.80;;;7.70;;
2912;SDS011;1466;48.778;9.166;2022-07-23T01:26:45;14.97;;;9.03;;
2912;SDS011;1466;48.778;9.166;2022-07-23T01:29:11;11.27;;;7.83;;
2912;SDS011;1466;48.778;9.166;2022-07-23T01:31:37;7.23;;;6.63;;
2912;SDS011;1466;48.778;9.166;2022-07-23T01:34:03;15.07;;;9.77;;
2912;SDS011;1466;48.778;9.166;2022-07-23T01:36:29;13.13;;;8.57;;
2912;SDS011;1466;48.778;9.166;2022-07-23T01:38:55;14.30;;;9.00;;
2912;SDS011;1466;48.778;9.166;2022-07-23T01:41:21;11.50;;;7.80;;
2912;SDS011;1466;48.778;9.166;2022-07-23T01:43:46;15.77;;;9.37;;
2912;SDS011;1466;48.778;9.166;2022-07-23T01:46:12;11.63;;;8.13;;
2912;SDS011;1466;48.778;9.166;2022-07-23T01:48:38;13.90;;;9.10;;
2912;SDS011;1466;48.778;9.166;2022-07-23T01:51:04;9.57;;;7.77;;
2912;SDS011;1466;48.778;9.166;2022-07-23T01:53:30;12.23;;;8.57;;
2912;SDS011;1466;48.778;9.166;2022-07-23T01:55:58;10.77;;;8.40;;
2912;SDS011;1466;48.778;9.166;2022-07-23T01:58:25;11.43;;;7.80;;
2912;SDS011;1466;48.778;9.166;2022-07-23T02:00:51;12.80;;;8.50;;
2912;SDS011;1466;48.778;9.166;2022-07-23T02:03:17;11.00;;;7.73;;
2912;SDS011;1466;48.778;9.166;2022-07-23T02:05:43;15.20;;;8.80;;
2912;SDS011;1466;48.778;9.166;2022-07-23T02:08:08;11.60;;;8.47;;
2912;SDS011;1466;48.778;9.166;2022-07-23T02:10:34;17.00;;;9.30;;
2912;SDS011;1466;48.778;9.166;2022-07-23T02:12:59;12.77;;;8.07;;
2912;SDS011;1466;48.778;9.166;2022-07-23T02:15:25;13.27;;;8.03;;
2912;SDS011;1466;48.778;9.166;2022-07-23T02:17:51;10.83;;;7.97;;
2912;SDS011;1466;48.778;9.166;2022-07-23T02:20:17;12.93;;;8.30;;
2912;SDS011;1466;48.778;9.166;2022-07-23T02:22:42;10.97;;;8.10;;
2912;SDS011;1466;48.778;9.166;2022-07-23T02:25:08;11.43;;;7.67;;
2912;SDS011;1466;48.778;9.166;2022-07-23T02:27:34;11.20;;;8.63;;
2912;SDS011;1466;48.778;9.166;2022-07-23T02:30:00;14.47;;;9.20;;
2912;SDS011;1466;48.778;9.166;2022-07-23T02:32:26;14.53;;;8.87;;
2912;SDS011;1466;48.778;9.166;2022-07-23T02:34:51;10.80;;;8.00;;
2912;SDS011;1466;48.778;9.166;2022-07-23T02:37:17;8.60;;;7.30;;
2912;SDS011;1466;48.778;9.166;2022-07-23T02:39:43;17.47;;;9.07;;
2912;SDS011;1466;48.778;9.166;2022-07-23T02:42:09;14.77;;;9.17;;
2912;SDS011;1466;48.778;9.166;2022-07-23T02:44:35;12.00;;;7.87;;
2912;SDS011;1466;48.778;9.166;2022-07-23T02:47:00;19.00;;;9.67;;
2912;SDS011;1466;48.778;9.166;2022-07-23T02:49:26;8.47;;;7.60;;
2912;SDS011;1466;48.778;9.166;2022-07-23T02:51:52;10.50;;;8.20;;
2912;SDS011;1466;48.778;9.166;2022-07-23T02:54:17;13.07;;;8.13;;
2912;SDS011;1466;48.778;9.166;2022-07-23T02:56:44;11.00;;;8.60;;
2912;SDS011;1466;48.778;9.166;2022-07-23T02:59:09;11.57;;;7.83;;
2912;SDS011;1466;48.778;9.166;2022-07-23T03:01:35;12.03;;;8.60;;
2912;SDS011;1466;48.778;9.166;2022-07-23T03:04:01;15.03;;;9.33;;
2912;SDS011;1466;48.778;9.166;2022-07-23T03:06:27;10.77;;;8.40;;
2912;SDS011;1466;48.778;9.166;2022-07-23T03:08:52;14.77;;;9.00;;
2912;SDS011;1466;48.778;9.166;2022-07-23T03:11:18;15.00;;;8.43;;
2912;SDS011;1466;48.778;9.166;2022-07-23T03:13:43;14.90;;;9.00;;
2912;SDS011;1466;48.778;9.166;2022-07-23T03:16:09;12.20;;;9.30;;
2912;SDS011;1466;48.778;9.166;2022-07-23T03:18:35;10.60;;;8.23;;
2912;SDS011;1466;48.778;9.166;2022-07-23T03:21:02;13.17;;;8.13;;
2912;SDS011;1466;48.778;9.166;2022-07-23T03:23:28;13.77;;;8.90;;
2912;SDS011;1466;48.778;9.166;2022-07-23T03:25:54;10.27;;;8.40;;
2912;SDS011;1466;48.778;9.166;2022-07-23T03:28:19;17.30;;;9.10;;
2912;SDS011;1466;48.778;9.166;2022-07-23T03:30:45;8.53;;;7.50;;
2912;SDS011;1466;48.778;9.166;2022-07-23T03:33:15;12.10;;;8.57;;
2912;SDS011;1466;48.778;9.166;2022-07-23T03:35:45;10.60;;;7.80;;
2912;SDS011;1466;48.778;9.166;2022-07-23T03:38:12;9.47;;;8.20;;
2912;SDS011;1466;48.778;9.166;2022-07-23T03:40:38;15.97;;;9.27;;
2912;SDS011;1466;48.778;9.166;2022-07-23T03:43:04;9.20;;;8.23;;
2912;SDS011;1466;48.778;9.166;2022-07-23T03:45:29;13.70;;;8.97;;
2912;SDS011;1466;48.778;9.166;2022-07-23T03:47:55;11.83;;;8.80;;
2912;SDS011;1466;48.778;9.166;2022-07-23T03:50:21;20.00;;;10.40;;
2912;SDS011;1466;48.778;9.166;2022-07-23T03:52:47;13.00;;;8.73;;
2912;SDS011;1466;48.778;9.166;2022-07-23T03:55:13;13.83;;;8.97;;
2912;SDS011;1466;48.778;9.166;2022-07-23T03:57:38;11.90;;;8.00;;
2912;SDS011;1466;48.778;9.166;2022-07-23T04:00:05;15.13;;;9.17;;
2912;SDS011;1466;48.778;9.166;2022-07-23T04:02:33;18.33;;;9.07;;
2912;SDS011;1466;48.778;9.166;2022-07-23T04:04:59;12.97;;;9.47;;
2912;SDS011;1466;48.778;9.166;2022-07-23T04:07:25;12.17;;;8.40;;
2912;SDS011;1466;48.778;9.166;2022-07-23T04:09:51;13.23;;;8.40;;
2912;SDS011;1466;48.778;9.166;2022-07-23T04:12:17;16.50;;;8.93;;
2912;SDS011;1466;48.778;9.166;2022-07-23T04:14:42;12.90;;;9.30;;
2912;SDS011;1466;48.778;9.166;2022-07-23T04:17:08;15.37;;;9.20;;
2912;SDS011;1466;48.778;9.166;2022-07-23T04:19:33;9.40;;;7.57;;
2912;SDS011;1466;48.778;9.166;2022-07-23T04:22:04;14.50;;;8.50;;
2912;SDS011;1466;48.778;9.166;2022-07-23T04:24:31;16.80;;;9.63;;
2912;SDS011;1466;48.778;9.166;2022-07-23T04:26:56;11.70;;;9.07;;
2912;SDS011;1466;48.778;9.166;2022-07-23T04:29:22;12.40;;;8.63;;
2912;SDS011;1466;48.778;9.166;2022-07-23T04:31:48;12.17;;;8.73;;
2912;SDS011;1466;48.778;9.166;2022-07-23T04:34:14;14.90;;;9.33;;
2912;SDS011;1466;48.778;9.166;2022-07-23T04:36:39;15.23;;;9.23;;
2912;SDS011;1466;48.778;9.166;2022-07-23T04:39:05;13.80;;;9.33;;
2912;SDS011;1466;48.778;9.166;2022-07-23T04:41:31;12.60;;;9.30;;
2912;SDS011;1466;48.778;9.166;2022-07-23T04:43:57;11.80;;;9.00;;
2912;SDS011;1466;48.778;9.166;2022-07-23T04:46:22;13.13;;;8.20;;
2912;SDS011;1466;48.778;9.166;2022-07-23T04:48:48;14.47;;;9.27;;
2912;SDS011;1466;48.778;9.166;2022-07-23T04:51:14;12.67;;;9.07;;
2912;SDS011;1466;48.778;9.166;2022-07-23T04:53:39;13.50;;;8.20;;
2912;SDS011;1466;48.778;9.166;2022-07-23T04:56:05;12.93;;;8.50;;
2912;SDS011;1466;48.778;9.166;2022-07-23T04:58:31;15.83;;;10.03;;
2912;SDS011;1466;48.778;9.166;2022-07-23T05:00:57;8.87;;;7.97;;
2912;SDS011;1466;48.778;9.166;2022-07-23T05:03:23;14.33;;;9.60;;
2912;SDS011;1466;48.778;9.166;2022-07-23T05:05:49;8.93;;;7.83;;
2912;SDS011;1466;48.778;9.166;2022-07-23T05:08:14;8.80;;;7.97;;
2912;SDS011;1466;48.778;9.166;2022-07-23T05:10:40;11.50;;;7.70;;
2912;SDS011;1466;48.778;9.166;2022-07-23T05:13:06;13.80;;;8.20;;
2912;SDS011;1466;48.778;9.166;2022-07-23T05:15:32;12.80;;;8.47;;
2912;SDS011;1466;48.778;9.166;2022-07-23T05:17:58;11.13;;;8.30;;
2912;SDS011;1466;48.778;9.166;2022-07-23T05:20:23;14.63;;;9.37;;
2912;SDS011;1466;48.778;9.166;2022-07-23T05:22:49;12.60;;;8.87;;
2912;SDS011;1466;48.778;9.166;2022-07-23T05:25:15;14.00;;;8.83;;
2912;SDS011;1466;48.778;9.166;2022-07-23T05:27:40;14.70;;;8.80;;
2912;SDS011;1466;48.778;9.166;2022-07-23T05:30:06;23.90;;;10.40;;
2912;SDS011;1466;48.778;9.166;2022-07-23T05:32:32;14.57;;;9.07;;
2912;SDS011;1466;48.778;9.166;2022-07-23T05:34:58;11.00;;;8.60;;
2912;SDS011;1466;48.778;9.166;2022-07-23T05:37:23;12.50;;;9.00;;
2912;SDS011;1466;48.778;9.166;2022-07-23T05:39:49;17.10;;;8.87;;
2912;SDS011;1466;48.778;9.166;2022-07-23T05:42:15;11.40;;;8.87;;
2912;SDS011;1466;48.778;9.166;2022-07-23T05:44:40;16.33;;;9.30;;
2912;SDS011;1466;48.778;9.166;2022-07-23T05:47:06;11.27;;;8.83;;
2912;SDS011;1466;48.778;9.166;2022-07-23T05:49:32;13.43;;;9.47;;
2912;SDS011;1466;48.778;9.166;2022-07-23T05:51:57;12.87;;;9.80;;
2912;SDS011;1466;48.778;9.166;2022-07-23T05:54:23;11.90;;;9.07;;
2912;SDS011;1466;48.778;9.166;2022-07-23T05:56:49;11.90;;;8.83;;
2912;SDS011;1466;48.778;9.166;2022-07-23T05:59:15;14.03;;;9.83;;
2912;SDS011;1466;48.778;9.166;2022-07-23T06:01:40;18.03;;;9.80;;
2912;SDS011;1466;48.778;9.166;2022-07-23T06:04:06;14.40;;;9.23;;
2912;SDS011;1466;48.778;9.166;2022-07-23T06:06:32;16.43;;;9.40;;
2912;SDS011;1466;48.778;9.166;2022-07-23T06:08:58;11.17;;;8.20;;
2912;SDS011;1466;48.778;9.166;2022-07-23T06:11:24;11.53;;;8.80;;
2912;SDS011;1466;48.778;9.166;2022-07-23T06:13:49;17.37;;;10.07;;
2912;SDS011;1466;48.778;9.166;2022-07-23T06:16:15;11.40;;;9.00;;
2912;SDS011;1466;48.778;9.166;2022-07-23T06:18:41;15.83;;;9.10;;
2912;SDS011;1466;48.778;9.166;2022-07-23T06:21:06;16.10;;;9.53;;
2912;SDS011;1466;48.778;9.166;2022-07-23T06:23:32;16.00;;;9.63;;
2912;SDS011;1466;48.778;9.166;2022-07-23T06:25:57;10.17;;;8.50;;
2912;SDS011;1466;48.778;9.166;2022-07-23T06:28:23;11.57;;;8.53;;
2912;SDS011;1466;48.778;9.166;2022-07-23T06:30:49;15.23;;;9.13;;
2912;SDS011;1466;48.778;9.166;2022-07-23T06:33:14;13.20;;;9.53;;
2912;SDS011;1466;48.778;9.166;2022-07-23T06:35:40;21.37;;;10.73;;
2912;SDS011;1466;48.778;9.166;2022-07-23T06:38:06;21.63;;;11.20;;
2912;SDS011;1466;48.778;9.166;2022-07-23T06:40:31;25.73;;;12.37;;
2912;SDS011;1466;48.778;9.166;2022-07-23T06:42:57;13.27;;;10.47;;
2912;SDS011;1466;48.778;9.166;2022-07-23T06:45:22;24.07;;;11.23;;
2912;SDS011;1466;48.778;9.166;2022-07-23T06:47:48;10.67;;;9.03;;
2912;SDS011;1466;48.778;9.166;2022-07-23T06:50:14;17.63;;;10.80;;
2912;SDS011;1466;48.778;9.166;2022-07-23T06:52:39;13.33;;;9.27;;
2912;SDS011;1466;48.778;9.166;2022-07-23T06:55:05;18.47;;;10.97;;
2912;SDS011;1466;48.778;9.166;2022-07-23T06:57:31;11.10;;;8.90;;
2912;SDS011;1466;48.778;9.166;2022-07-23T06:59:57;19.40;;;9.43;;
2912;SDS011;1466;48.778;9.166;2022-07-23T07:02:22;11.63;;;9.40;;
2912;SDS011;1466;48.778;9.166;2022-07-23T07:04:48;16.87;;;9.20;;
2912;SDS011;1466;48.778;9.166;2022-07-23T07:07:14;22.07;;;11.10;;
2912;SDS011;1466;48.778;9.166;2022-07-23T07:09:40;19.63;;;10.40;;
2912;SDS011;1466;48.778;9.166;2022-07-23T07:12:05;24.30;;;12.10;;
2912;SDS011;1466;48.778;9.166;2022-07-23T07:14:31;32.10;;;13.40;;
2912;SDS011;1466;48.778;9.166;2022-07-23T07:16:58;21.10;;;10.17;;
2912;SDS011;1466;48.778;9.166;2022-07-23T07:19:23;21.50;;;10.40;;
2912;SDS011;1466;48.778;9.166;2022-07-23T07:21:54;31.13;;;13.53;;
2912;SDS011;1466;48.778;9.166;2022-07-23T07:24:19;21.50;;;11.07;;
2912;SDS011;1466;48.778;9.166;2022-07-23T07:26:45;21.70;;;11.37;;
2912;SDS011;1466;48.778;9.166;2022-07-23T07:29:10;15.87;;;9.93;;
2912;SDS011;1466;48.778;9.166;2022-07-23T07:31:36;16.60;;;10.60;;
2912;SDS011;1466;48.778;9.166;2022-07-23T07:34:01;15.47;;;10.80;;
2912;SDS011;1466;48.778;9.166;2022-07-23T07:36:27;11.60;;;9.10;;
2912;SDS011;1466;48.778;9.166;2022-07-23T07:38:53;14.20;;;10.03;;
2912;SDS011;1466;48.778;9.166;2022-07-23T07:41:18;18.33;;;11.27;;
2912;SDS011;1466;48.778;9.166;2022-07-23T07:43:47;18.63;;;10.77;;
2912;SDS011;1466;48.778;9.166;2022-07-23T07:46:13;13.40;;;9.43;;
2912;SDS011;1466;48.778;9.166;2022-07-23T07:48:39;14.50;;;9.40;;
2912;SDS011;1466;48.778;9.166;2022-07-23T07:51:05;16.27;;;10.20;;
2912;SDS011;1466;48.778;9.166;2022-07-23T07:53:31;16.13;;;9.90;;
2912;SDS011;1466;48.778;9.166;2022-07-23T07:55:56;12.97;;;9.47;;
2912;SDS011;1466;48.778;9.166;2022-07-23T07:58:22;19.23;;;10.13;;
2912;SDS011;1466;48.778;9.166;2022-07-23T08:00:48;23.73;;;9.97;;
2912;SDS011;1466;48.778;9.166;2022-07-23T08:03:13;13.77;;;9.87;;
2912;SDS011;1466;48.778;9.166;2022-07-23T08:05:39;12.20;;;8.67;;
2912;SDS011;1466;48.778;9.166;2022-07-23T08:08:04;13.93;;;9.60;;
2912;SDS011;1466;48.778;9.166;2022-07-23T08:10:30;15.30;;;9.90;;
2912;SDS011;1466;48.778;9.166;2022-07-23T08:12:57;17.20;;;10.03;;
2912;SDS011;1466;48.778;9.166;2022-07-23T08:15:26;14.90;;;10.80;;
2912;SDS011;1466;48.778;9.166;2022-07-23T08:17:53;16.87;;;9.97;;
2912;SDS011;1466;48.778;9.166;2022-07-23T08:20:20;11.73;;;9.67;;
2912;SDS011;1466;48.778;9.166;2022-07-23T08:25:13;17.00;;;9.73;;
2912;SDS011;1466;48.778;9.166;2022-07-23T08:27:39;11.00;;;9.80;;
2912;SDS011;1466;48.778;9.166;2022-07-23T08:30:05;17.37;;;10.93;;
2912;SDS011;1466;48.778;9.166;2022-07-23T08:32:31;15.43;;;9.83;;
2912;SDS011;1466;48.778;9.166;2022-07-23T08:34:57;11.37;;;9.00;;
2912;SDS011;1466;48.778;9.166;2022-07-23T08:37:23;13.33;;;8.97;;
2912;SDS011;1466;48.778;9.166;2022-07-23T08:39:48;11.90;;;9.70;;
2912;SDS011;1466;48.778;9.166;2022-07-23T08:42:14;11.67;;;9.07;;
2912;SDS011;1466;48.778;9.166;2022-07-23T08:44:44;14.13;;;9.30;;
2912;SDS011;1466;48.778;9.166;2022-07-23T08:47:11;17.43;;;9.97;;
2912;SDS011;1466;48.778;9.166;2022-07-23T08:49:37;12.50;;;9.43;;
2912;SDS011;1466;48.778;9.166;2022-07-23T08:52:04;11.53;;;9.20;;
2912;SDS011;1466;48.778;9.166;2022-07-23T08:54:31;15.53;;;9.20;;
2912;SDS011;1466;48.778;9.166;2022-07-23T08:57:05;15.20;;;9.80;;
2912;SDS011;1466;48.778;9.166;2022-07-23T08:59:31;13.20;;;9.60;;
2912;SDS011;1466;48.778;9.166;2022-07-23T09:01:57;17.67;;;10.60;;
2912;SDS011;1466;48.778;9.166;2022-07-23T09:04:23;13.63;;;9.70;;
2912;SDS011;1466;48.778;9.166;2022-07-23T09:06:49;20.23;;;11.80;;
2912;SDS011;1466;48.778;9.166;2022-07-23T09:09:18;10.87;;;9.40;;
2912;SDS011;1466;48.778;9.166;2022-07-23T09:11:46;15.00;;;10.10;;
2912;SDS011;1466;48.778;9.166;2022-07-23T09:14:41;9.97;;;8.67;;
2912;SDS011;1466;48.778;9.166;2022-07-23T09:17:14;14.00;;;9.50;;
2912;SDS011;1466;48.778;9.166;2022-07-23T09:19:43;11.40;;;9.67;;
2912;SDS011;1466;48.778;9.166;2022-07-23T09:22:18;26.73;;;12.50;;
2912;SDS011;1466;48.778;9.166;2022-07-23T09:30:26;16.93;;;9.93;;
2912;SDS011;1466;48.778;9.166;2022-07-23T09:38:34;13.10;;;9.57;;
2912;SDS011;1466;48.778;9.166;2022-07-23T09:41:13;14.97;;;9.60;;
2912;SDS011;1466;48.778;9.166;2022-07-23T09:43:39;14.30;;;9.80;;
2912;SDS011;1466;48.778;9.166;2022-07-23T09:48:44;13.37;;;10.13;;
2912;SDS011;1466;48.778;9.166;2022-07-23T09:51:10;16.40;;;10.73;;
2912;SDS011;1466;48.778;9.166;2022-07-23T09:53:35;11.80;;;10.10;;
2912;SDS011;1466;48.778;9.166;2022-07-23T09:56:01;13.60;;;10.33;;
2912;SDS011;1466;48.778;9.166;2022-07-23T09:58:27;10.43;;;9.37;;
2912;SDS011;1466;48.778;9.166;2022-07-23T10:00:55;13.00;;;9.60;;
2912;SDS011;1466;48.778;9.166;2022-07-23T10:03:22;13.63;;;10.43;;
2912;SDS011;1466;48.778;9.166;2022-07-23T10:05:49;17.03;;;10.57;;
2912;SDS011;1466;48.778;9.166;2022-07-23T10:08:17;13.90;;;9.37;;
2912;SDS011;1466;48.778;9.166;2022-07-23T10:10:43;15.37;;;9.50;;
2912;SDS011;1466;48.778;9.166;2022-07-23T10:13:11;20.93;;;11.50;;
2912;SDS011;1466;48.778;9.166;2022-07-23T10:15:40;10.80;;;9.57;;
2912;SDS011;1466;48.778;9.166;2022-07-23T10:18:06;18.17;;;10.87;;
2912;SDS011;1466;48.778;9.166;2022-07-23T10:20:34;20.50;;;10.77;;
2912;SDS011;1466;48.778;9.166;2022-07-23T10:31:58;15.13;;;10.07;;
2912;SDS011;1466;48.778;9.166;2022-07-23T10:37:32;14.07;;;9.63;;
2912;SDS011;1466;48.778;9.166;2022-07-23T10:40:08;18.50;;;10.90;;
2912;SDS011;1466;48.778;9.166;2022-07-23T10:42:39;13.87;;;8.67;;
2912;SDS011;1466;48.778;9.166;2022-07-23T10:45:50;13.80;;;9.63;;
2912;SDS011;1466;48.778;9.166;2022-07-23T10:47:54;19.20;;;10.07;;
2912;SDS011;1466;48.778;9.166;2022-07-23T10:50:28;11.90;;;8.70;;
2912;SDS011;1466;48.778;9.166;2022-07-23T10:58:03;11.17;;;9.20;;
2912;SDS011;1466;48.778;9.166;2022-07-23T11:00:30;36.43;;;13.43;;
2912;SDS011;1466;48.778;9.166;2022-07-23T11:02:58;11.03;;;9.40;;
2912;SDS011;1466;48.778;9.166;2022-07-23T11:10:39;14.37;;;9.80;;
2912;SDS011;1466;48.778;9.166;2022-07-23T11:26:52;15.80;;;10.20;;
2912;SDS011;1466;48.778;9.166;2022-07-23T11:37:00;12.10;;;9.73;;
2912;SDS011;1466;48.778;9.166;2022-07-23T11:39:28;12.47;;;9.50;;
2912;SDS011;1466;48.778;9.166;2022-07-23T11:41:55;15.13;;;9.90;;
2912;SDS011;1466;48.778;9.166;2022-07-23T11:44:25;22.83;;;11.83;;
2912;SDS011;1466;48.778;9.166;2022-07-23T11:46:58;16.77;;;10.40;;
2912;SDS011;1466;48.778;9.166;2022-07-23T11:49:25;17.73;;;10.80;;
2912;SDS011;1466;48.778;9.166;2022-07-23T11:52:08;17.97;;;9.63;;
2912;SDS011;1466;48.778;9.166;2022-07-23T11:54:37;21.73;;;10.80;;
2912;SDS011;1466;48.778;9.166;2022-07-23T11:57:33;14.10;;;10.23;;
2912;SDS011;1466;48.778;9.166;2022-07-23T12:02:36;13.47;;;10.23;;
2912;SDS011;1466;48.778;9.166;2022-07-23T12:05:03;10.30;;;9.10;;
2912;SDS011;1466;48.778;9.166;2022-07-23T12:10:02;21.63;;;11.90;;
2912;SDS011;1466;48.778;9.166;2022-07-23T12:12:43;17.53;;;10.60;;
2912;SDS011;1466;48.778;9.166;2022-07-23T12:15:40;19.27;;;11.63;;
2912;SDS011;1466;48.778;9.166;2022-07-23T12:18:11;20.53;;;12.40;;
2912;SDS011;1466;48.778;9.166;2022-07-23T12:20:40;19.60;;;11.57;;
2912;SDS011;1466;48.778;9.166;2022-07-23T12:23:11;16.10;;;10.30;;
2912;SDS011;1466;48.778;9.166;2022-07-23T12:25:42;18.77;;;11.20;;
2912;SDS011;1466;48.778;9.166;2022-07-23T12:33:04;18.90;;;10.83;;
2912;SDS011;1466;48.778;9.166;2022-07-23T12:35:33;15.90;;;10.67;;
2912;SDS011;1466;48.778;9.166;2022-07-23T12:38:03;14.10;;;10.40;;
2912;SDS011;1466;48.778;9.166;2022-07-23T12:40:35;27.43;;;11.93;;
2912;SDS011;1466;48.778;9.166;2022-07-23T12:43:08;30.37;;;13.10;;
2912;SDS011;1466;48.778;9.166;2022-07-23T12:48:16;14.77;;;10.27;;
2912;SDS011;1466;48.778;9.166;2022-07-23T12:50:49;27.97;;;13.53;;
2912;SDS011;1466;48.778;9.166;2022-07-23T12:53:25;16.47;;;11.50;;
2912;SDS011;1466;48.778;9.166;2022-07-23T13:06:27;13.80;;;9.53;;
2912;SDS011;1466;48.778;9.166;2022-07-23T13:08:53;13.20;;;10.50;;
2912;SDS011;1466;48.778;9.166;2022-07-23T13:11:19;14.33;;;11.40;;
2912;SDS011;1466;48.778;9.166;2022-07-23T13:13:45;17.10;;;10.87;;
2912;SDS011;1466;48.778;9.166;2022-07-23T13:16:10;11.73;;;10.43;;
2912;SDS011;1466;48.778;9.166;2022-07-23T13:21:37;14.97;;;10.83;;
2912;SDS011;1466;48.778;9.166;2022-07-23T13:24:04;14.60;;;10.63;;
2912;SDS011;1466;48.778;9.166;2022-07-23T13:26:29;14.47;;;9.83;;
2912;SDS011;1466;48.778;9.166;2022-07-23T13:28:55;14.20;;;10.30;;
2912;SDS011;1466;48.778;9.166;2022-07-23T13:31:21;18.90;;;11.03;;
2912;SDS011;1466;48.778;9.166;2022-07-23T13:33:47;13.70;;;10.63;;
2912;SDS011;1466;48.778;9.166;2022-07-23T13:36:13;17.73;;;11.03;;
2912;SDS011;1466;48.778;9.166;2022-07-23T13:38:45;12.87;;;9.60;;
2912;SDS011;1466;48.778;9.166;2022-07-23T13:41:10;16.20;;;10.77;;
2912;SDS011;1466;48.778;9.166;2022-07-23T13:43:36;11.53;;;10.30;;
2912;SDS011;1466;48.778;9.166;2022-07-23T13:46:02;20.90;;;12.13;;
2912;SDS011;1466;48.778;9.166;2022-07-23T13:48:28;12.70;;;10.40;;
2912;SDS011;1466;48.778;9.166;2022-07-23T13:50:56;16.73;;;10.80;;
2912;SDS011;1466;48.778;9.166;2022-07-23T13:53:22;16.67;;;11.10;;
2912;SDS011;1466;48.778;9.166;2022-07-23T13:55:49;18.40;;;12.23;;
2912;SDS011;1466;48.778;9.166;2022-07-23T13:58:18;24.93;;;12.43;;
2912;SDS011;1466;48.778;9.166;2022-07-23T14:00:45;17.23;;;11.23;;
2912;SDS011;1466;48.778;9.166;2022-07-23T14:03:14;19.10;;;11.80;;
2912;SDS011;1466;48.778;9.166;2022-07-23T14:05:41;26.53;;;12.90;;
2912;SDS011;1466;48.778;9.166;2022-07-23T14:08:07;16.50;;;11.93;;
2912;SDS011;1466;48.778;9.166;2022-07-23T14:10:32;33.00;;;13.80;;
2912;SDS011;1466;48.778;9.166;2022-07-23T14:12:58;24.00;;;11.80;;
2912;SDS011;1466;48.778;9.166;2022-07-23T14:15:25;22.30;;;12.07;;
2912;SDS011;1466;48.778;9.166;2022-07-23T14:17:53;18.83;;;11.73;;
2912;SDS011;1466;48.778;9.166;2022-07-23T14:20:18;24.50;;;12.53;;
2912;SDS011;1466;48.778;9.166;2022-07-23T14:22:44;16.53;;;11.30;;
2912;SDS011;1466;48.778;9.166;2022-07-23T14:25:10;11.90;;;10.63;;
2912;SDS011;1466;48.778;9.166;2022-07-23T14:27:36;14.97;;;10.20;;
2912;SDS011;1466;48.778;9.166;2022-07-23T14:30:06;16.27;;;11.40;;
2912;SDS011;1466;48.778;9.166;2022-07-23T14:32:33;11.83;;;10.20;;
2912;SDS011;1466;48.778;9.166;2022-07-23T14:34:58;13.10;;;10.10;;
2912;SDS011;1466;48.778;9.166;2022-07-23T14:37:24;17.37;;;10.50;;
2912;SDS011;1466;48.778;9.166;2022-07-23T14:39:50;21.10;;;11.30;;
2912;SDS011;1466;48.778;9.166;2022-07-23T14:42:16;16.53;;;11.47;;
2912;SDS011;1466;48.778;9.166;2022-07-23T14:44:43;12.33;;;11.07;;
2912;SDS011;1466;48.778;9.166;2022-07-23T14:47:08;14.83;;;10.07;;
2912;SDS011;1466;48.778;9.166;2022-07-23T14:49:34;14.30;;;10.50;;
2912;SDS011;1466;48.778;9.166;2022-07-23T14:52:01;15.93;;;10.57;;
2912;SDS011;1466;48.778;9.166;2022-07-23T14:54:27;14.83;;;9.67;;
2912;SDS011;1466;48.778;9.166;2022-07-23T14:56:54;13.40;;;10.57;;
2912;SDS011;1466;48.778;9.166;2022-07-23T14:59:21;18.53;;;10.90;;
2912;SDS011;1466;48.778;9.166;2022-07-23T15:01:48;21.90;;;11.70;;
2912;SDS011;1466;48.778;9.166;2022-07-23T15:04:13;14.60;;;11.63;;
2912;SDS011;1466;48.778;9.166;2022-07-23T15:06:39;16.03;;;10.87;;
2912;SDS011;1466;48.778;9.166;2022-07-23T15:09:05;14.53;;;10.33;;
2912;SDS011;1466;48.778;9.166;2022-07-23T15:11:31;16.17;;;11.63;;
2912;SDS011;1466;48.778;9.166;2022-07-23T15:13:59;13.93;;;11.03;;
2912;SDS011;1466;48.778;9.166;2022-07-23T15:16:25;12.10;;;10.80;;
2912;SDS011;1466;48.778;9.166;2022-07-23T15:18:51;14.33;;;11.40;;
2912;SDS011;1466;48.778;9.166;2022-07-23T15:21:16;15.80;;;11.30;;
2912;SDS011;1466;48.778;9.166;2022-07-23T15:23:42;18.30;;;11.10;;
2912;SDS011;1466;48.778;9.166;2022-07-23T15:26:08;15.47;;;10.60;;
2912;SDS011;1466;48.778;9.166;2022-07-23T15:28:34;13.47;;;10.77;;
2912;SDS011;1466;48.778;9.166;2022-07-23T15:31:00;14.53;;;11.00;;
2912;SDS011;1466;48.778;9.166;2022-07-23T15:33:26;14.23;;;11.37;;
2912;SDS011;1466;48.778;9.166;2022-07-23T15:35:52;14.40;;;11.10;;
2912;SDS011;1466;48.778;9.166;2022-07-23T15:38:20;12.73;;;10.90;;
2912;SDS011;1466;48.778;9.166;2022-07-23T15:40:46;21.97;;;11.80;;
2912;SDS011;1466;48.778;9.166;2022-07-23T15:43:11;14.40;;;11.23;;
2912;SDS011;1466;48.778;9.166;2022-07-23T15:45:38;14.30;;;10.83;;
2912;SDS011;1466;48.778;9.166;2022-07-23T15:48:05;13.03;;;11.53;;
2912;SDS011;1466;48.778;9.166;2022-07-23T15:50:31;20.77;;;12.60;;
2912;SDS011;1466;48.778;9.166;2022-07-23T15:52:57;14.97;;;10.20;;
2912;SDS011;1466;48.778;9.166;2022-07-23T15:55:22;17.43;;;12.33;;
2912;SDS011;1466;48.778;9.166;2022-07-23T15:57:48;12.70;;;10.83;;
2912;SDS011;1466;48.778;9.166;2022-07-23T16:00:15;13.37;;;10.90;;
2912;SDS011;1466;48.778;9.166;2022-07-23T16:02:40;12.27;;;10.83;;
2912;SDS011;1466;48.778;9.166;2022-07-23T16:05:06;15.03;;;12.47;;
2912;SDS011;1466;48.778;9.166;2022-07-23T16:07:32;18.90;;;10.93;;
2912;SDS011;1466;48.778;9.166;2022-07-23T16:10:02;15.90;;;11.30;;
2912;SDS011;1466;48.778;9.166;2022-07-23T16:12:30;24.47;;;12.50;;
2912;SDS011;1466;48.778;9.166;2022-07-23T16:14:56;13.57;;;11.03;;
2912;SDS011;1466;48.778;9.166;2022-07-23T16:17:22;20.80;;;12.10;;
2912;SDS011;1466;48.778;9.166;2022-07-23T16:19:47;15.70;;;10.67;;